sensor_id;sensor_type;location;lat;lon;timestamp;temperature;humidity
21627;DHT22;10975;47.872;12.972;2022-10-16T00:01:17;13.30;99.90
21627;DHT22;10975;47.872;12.972;2022-10-16T00:03:44;13.30;99.90
21627;DHT22;10975;47.872;12.972;2022-10-16T00:06:11;13.30;99.90
21627;DHT22;10975;47.872;12.972;2022-10-16T00:08:38;13.20;99.90
21627;DHT22;10975;47.872;12.972;2022-10-16T00:11:06;13.20;99.90
21627;DHT22;10975;47.872;12.972;2022-10-16T00:13:33;13.10;99.90
21627;DHT22;10975;47.872;12.972;2022-10-16T00:16:01;13.10;99.90
21627;DHT22;10975;47.872;12.972;2022-10-16T00:18:28;13.00;99.90
21627;DHT22;10975;47.872;12.972;2022-10-16T00:20:55;13.00;99.90
21627;DHT22;10975;47.872;12.972;2022-10-16T00:23:22;13.00;99.90
21627;DHT22;10975;47.872;12.972;2022-10-16T00:25:56;13.00;99.90
21627;DHT22;10975;47.872;12.972;2022-10-16T00:28:23;13.00;99.90
21627;DHT22;10975;47.872;12.972;2022-10-16T00:30:50;13.10;99.90
21627;DHT22;10975;47.872;12.972;2022-10-16T00:33:17;13.10;99.90
21627;DHT22;10975;47.872;12.972;2022-10-16T00:35:43;13.10;99.90
21627;DHT22;10975;47.872;12.972;2022-10-16T00:38:10;13.00;99.90
21627;DHT22;10975;47.872;12.972;2022-10-16T00:40:37;13.00;99.90
21627;DHT22;10975;47.872;12.972;2022-10-16T00:43:09;12.90;99.90
21627;DHT22;10975;47.872;12.972;2022-10-16T00:45:38;13.00;99.90
21627;DHT22;10975;47.872;12.972;2022-10-16T00:48:06;13.00;99.90
21627;DHT22;10975;47.872;12.972;2022-10-16T00:50:37;13.00;99.90
21627;DHT22;10975;47.872;12.972;2022-10-16T00:53:05;13.00;99.90
21627;DHT22;10975;47.872;12.972;2022-10-16T00:55:31;13.00;99.90
21627;DHT22;10975;47.872;12.972;2022-10-16T00:57:58;13.00;99.90
21627;DHT22;10975;47.872;12.972;2022-10-16T01:00:26;12.90;99.90
21627;DHT22;10975;47.872;12.972;2022-10-16T01:03:00;12.90;99.90
21627;DHT22;10975;47.872;12.972;2022-10-16T01:05:31;12.90;99.90
21627;DHT22;10975;47.872;12.972;2022-10-16T01:08:02;12.90;99.90
21627;DHT22;10975;47.872;12.972;2022-10-16T01:10:43;12.90;99.90
21627;DHT22;10975;47.872;12.972;2022-10-16T01:13:21;12.90;99.90
21627;DHT22;10975;47.872;12.972;2022-10-16T01:15:55;12.90;99.90
21627;DHT22;10975;47.872;12.972;2022-10-16T01:18:28;12.80;99.90
21627;DHT22;10975;47.872;12.972;2022-10-16T01:20:58;12.80;99.90
21627;DHT22;10975;47.872;12.972;2022-10-16T01:23:30;12.80;99.90
21627;DHT22;10975;47.872;12.972;2022-10-16T01:31:18;12.70;99.90
21627;DHT22;10975;47.872;12.972;2022-10-16T01:33:46;12.60;99.90
21627;DHT22;10975;47.872;12.972;2022-10-16T01:36:19;12.60;99.90
21627;DHT22;10975;47.872;12.972;2022-10-16T01:38:47;12.60;99.90
21627;DHT22;10975;47.872;12.972;2022-10-16T01:41:21;12.60;99.90
21627;DHT22;10975;47.872;12.972;2022-10-16T01:44:11;12.60;99.90
21627;DHT22;10975;47.872;12.972;2022-10-16T01:46:41;12.60;99.90
21627;DHT22;10975;47.872;12.972;2022-10-16T01:49:12;12.50;99.90
21627;DHT22;10975;47.872;12.972;2022-10-16T01:51:39;12.50;99.90
21627;DHT22;10975;47.872;12.972;2022-10-16T01:54:08;12.50;99.90
21627;DHT22;10975;47.872;12.972;2022-10-16T01:56:34;12.40;99.90
21627;DHT22;10975;47.872;12.972;2022-10-16T01:59:07;12.40;99.90
21627;DHT22;10975;47.872;12.972;2022-10-16T02:01:36;12.40;99.90
21627;DHT22;10975;47.872;12.972;2022-10-16T02:04:08;12.40;99.90
21627;DHT22;10975;47.872;12.972;2022-10-16T02:06:35;12.30;99.90
21627;DHT22;10975;47.872;12.972;2022-10-16T02:09:02;12.30;99.90
21627;DHT22;10975;47.872;12.972;2022-10-16T02:11:29;12.30;99.90
21627;DHT22;10975;47.872;12.972;2022-10-16T02:14:00;12.30;99.90
21627;DHT22;10975;47.872;12.972;2022-10-16T02:16:38;12.30;99.90
21627;DHT22;10975;47.872;12.972;2022-10-16T02:19:05;12.30;99.90
21627;DHT22;10975;47.872;12.972;2022-10-16T02:21:35;12.20;99.90
21627;DHT22;10975;47.872;12.972;2022-10-16T02:29:04;12.20;99.90
21627;DHT22;10975;47.872;12.972;2022-10-16T02:31:34;12.20;99.90
21627;DHT22;10975;47.872;12.972;2022-10-16T02:34:02;12.30;99.90
21627;DHT22;10975;47.872;12.972;2022-10-16T02:36:31;12.20;99.90
21627;DHT22;10975;47.872;12.972;2022-10-16T02:38:59;12.30;99.90
21627;DHT22;10975;47.872;12.972;2022-10-16T02:41:27;12.30;99.90
21627;DHT22;10975;47.872;12.972;2022-10-16T02:43:54;12.30;99.90
21627;DHT22;10975;47.872;12.972;2022-10-16T02:46:21;12.30;99.90
21627;DHT22;10975;47.872;12.972;2022-10-16T02:48:48;12.30;99.90
21627;DHT22;10975;47.872;12.972;2022-10-16T02:51:15;12.20;99.90
21627;DHT22;10975;47.872;12.972;2022-10-16T02:53:42;12.20;99.90
21627;DHT22;10975;47.872;12.972;2022-10-16T02:56:08;12.20;99.90
21627;DHT22;10975;47.872;12.972;2022-10-16T02:58:35;12.10;99.90
21627;DHT22;10975;47.872;12.972;2022-10-16T03:01:02;12.20;99.90
21627;DHT22;10975;47.872;12.972;2022-10-16T03:03:29;12.20;99.90
21627;DHT22;10975;47.872;12.972;2022-10-16T03:05:56;12.20;99.90
21627;DHT22;10975;47.872;12.972;2022-10-16T03:08:23;12.20;99.90
21627;DHT22;10975;47.872;12.972;2022-10-16T03:10:51;12.20;99.90
21627;DHT22;10975;47.872;12.972;2022-10-16T03:13:18;12.20;99.90
21627;DHT22;10975;47.872;12.972;2022-10-16T03:15:47;12.10;99.90
21627;DHT22;10975;47.872;12.972;2022-10-16T03:18:14;12.10;99.90
21627;DHT22;10975;47.872;12.972;2022-10-16T03:20:42;12.10;99.90
21627;DHT22;10975;47.872;12.972;2022-10-16T03:23:09;12.10;99.90
21627;DHT22;10975;47.872;12.972;2022-10-16T03:25:35;12.20;99.90
21627;DHT22;10975;47.872;12.972;2022-10-16T03:28:02;12.20;99.90
21627;DHT22;10975;47.872;12.972;2022-10-16T03:30:30;12.20;99.90
21627;DHT22;10975;47.872;12.972;2022-10-16T03:32:57;12.20;99.90
21627;DHT22;10975;47.872;12.972;2022-10-16T03:35:24;12.20;99.90
21627;DHT22;10975;47.872;12.972;2022-10-16T03:37:51;12.20;99.90
21627;DHT22;10975;47.872;12.972;2022-10-16T03:40:17;12.20;99.90
21627;DHT22;10975;47.872;12.972;2022-10-16T03:42:44;12.20;99.90
21627;DHT22;10975;47.872;12.972;2022-10-16T03:45:11;12.20;99.90
21627;DHT22;10975;47.872;12.972;2022-10-16T03:47:38;12.20;99.90
21627;DHT22;10975;47.872;12.972;2022-10-16T03:50:05;12.20;99.90
21627;DHT22;10975;47.872;12.972;2022-10-16T03:52:31;12.20;99.90
21627;DHT22;10975;47.872;12.972;2022-10-16T03:54:59;12.20;99.90
21627;DHT22;10975;47.872;12.972;2022-10-16T03:57:26;12.20;99.90
21627;DHT22;10975;47.872;12.972;2022-10-16T03:59:53;12.20;99.90
21627;DHT22;10975;47.872;12.972;2022-10-16T04:02:20;12.10;99.90
21627;DHT22;10975;47.872;12.972;2022-10-16T04:04:46;12.10;99.90
21627;DHT22;10975;47.872;12.972;2022-10-16T04:07:13;12.10;99.90
21627;DHT22;10975;47.872;12.972;2022-10-16T04:09:40;12.10;99.90
21627;DHT22;10975;47.872;12.972;2022-10-16T04:12:07;12.10;99.90
21627;DHT22;10975;47.872;12.972;2022-10-16T04:14:33;12.10;99.90
21627;DHT22;10975;47.872;12.972;2022-10-16T04:17:00;12.10;99.90
21627;DHT22;10975;47.872;12.972;2022-10-16T04:19:27;12.10;99.90
21627;DHT22;10975;47.872;12.972;2022-10-16T04:21:53;12.00;99.90
21627;DHT22;10975;47.872;12.972;2022-10-16T04:24:20;12.00;99.90
21627;DHT22;10975;47.872;12.972;2022-10-16T04:26:47;12.00;99.90
21627;DHT22;10975;47.872;12.972;2022-10-16T04:29:14;12.00;99.90
21627;DHT22;10975;47.872;12.972;2022-10-16T04:31:41;12.00;99.90
21627;DHT22;10975;47.872;12.972;2022-10-16T04:34:07;12.00;99.90
21627;DHT22;10975;47.872;12.972;2022-10-16T04:36:34;12.00;99.90
21627;DHT22;10975;47.872;12.972;2022-10-16T04:39:01;12.00;99.90
21627;DHT22;10975;47.872;12.972;2022-10-16T04:41:27;11.90;99.90
21627;DHT22;10975;47.872;12.972;2022-10-16T04:43:54;11.90;99.90
21627;DHT22;10975;47.872;12.972;2022-10-16T04:46:21;11.90;99.90
21627;DHT22;10975;47.872;12.972;2022-10-16T04:48:47;11.90;99.90
21627;DHT22;10975;47.872;12.972;2022-10-16T04:51:14;11.80;99.90
21627;DHT22;10975;47.872;12.972;2022-10-16T04:53:41;11.70;99.90
21627;DHT22;10975;47.872;12.972;2022-10-16T04:56:08;11.70;99.90
21627;DHT22;10975;47.872;12.972;2022-10-16T04:58:34;11.70;99.90
21627;DHT22;10975;47.872;12.972;2022-10-16T05:01:01;11.70;99.90
21627;DHT22;10975;47.872;12.972;2022-10-16T05:03:28;11.70;99.90
21627;DHT22;10975;47.872;12.972;2022-10-16T05:05:54;11.70;99.90
21627;DHT22;10975;47.872;12.972;2022-10-16T05:08:21;11.70;99.90
21627;DHT22;10975;47.872;12.972;2022-10-16T05:10:48;11.70;99.90
21627;DHT22;10975;47.872;12.972;2022-10-16T05:13:14;11.60;99.90
21627;DHT22;10975;47.872;12.972;2022-10-16T05:15:42;11.60;99.90
21627;DHT22;10975;47.872;12.972;2022-10-16T05:18:12;11.60;99.90
21627;DHT22;10975;47.872;12.972;2022-10-16T05:20:39;11.50;99.90
21627;DHT22;10975;47.872;12.972;2022-10-16T05:23:06;11.50;99.90
21627;DHT22;10975;47.872;12.972;2022-10-16T05:25:32;11.50;99.90
21627;DHT22;10975;47.872;12.972;2022-10-16T05:27:59;11.50;99.90
21627;DHT22;10975;47.872;12.972;2022-10-16T05:30:26;11.50;99.90
21627;DHT22;10975;47.872;12.972;2022-10-16T05:32:52;11.50;99.90
21627;DHT22;10975;47.872;12.972;2022-10-16T05:35:19;11.50;99.90
21627;DHT22;10975;47.872;12.972;2022-10-16T05:37:46;11.40;99.90
21627;DHT22;10975;47.872;12.972;2022-10-16T05:40:13;11.40;99.90
21627;DHT22;10975;47.872;12.972;2022-10-16T05:42:40;11.40;99.90
21627;DHT22;10975;47.872;12.972;2022-10-16T05:45:07;11.50;99.90
21627;DHT22;10975;47.872;12.972;2022-10-16T05:47:34;11.50;99.90
21627;DHT22;10975;47.872;12.972;2022-10-16T05:50:01;11.50;99.90
21627;DHT22;10975;47.872;12.972;2022-10-16T05:52:28;11.50;99.90
21627;DHT22;10975;47.872;12.972;2022-10-16T05:54:54;11.60;99.90
21627;DHT22;10975;47.872;12.972;2022-10-16T05:57:21;11.60;99.90
21627;DHT22;10975;47.872;12.972;2022-10-16T05:59:48;11.60;99.90
21627;DHT22;10975;47.872;12.972;2022-10-16T06:02:15;11.60;99.90
21627;DHT22;10975;47.872;12.972;2022-10-16T06:04:42;11.70;99.90
21627;DHT22;10975;47.872;12.972;2022-10-16T06:07:09;11.70;99.90
21627;DHT22;10975;47.872;12.972;2022-10-16T06:09:35;11.70;99.90
21627;DHT22;10975;47.872;12.972;2022-10-16T06:12:02;11.70;99.90
21627;DHT22;10975;47.872;12.972;2022-10-16T06:14:28;11.70;99.90
21627;DHT22;10975;47.872;12.972;2022-10-16T06:16:55;11.80;99.90
21627;DHT22;10975;47.872;12.972;2022-10-16T06:19:22;11.80;99.90
21627;DHT22;10975;47.872;12.972;2022-10-16T06:21:49;11.90;99.90
21627;DHT22;10975;47.872;12.972;2022-10-16T06:24:15;11.90;99.90
21627;DHT22;10975;47.872;12.972;2022-10-16T06:26:42;11.90;99.90
21627;DHT22;10975;47.872;12.972;2022-10-16T06:29:09;12.00;99.90
21627;DHT22;10975;47.872;12.972;2022-10-16T06:31:36;12.10;99.90
21627;DHT22;10975;47.872;12.972;2022-10-16T06:34:03;12.10;99.90
21627;DHT22;10975;47.872;12.972;2022-10-16T06:36:32;12.10;99.90
21627;DHT22;10975;47.872;12.972;2022-10-16T06:38:59;12.20;99.90
21627;DHT22;10975;47.872;12.972;2022-10-16T06:41:25;12.20;99.90
21627;DHT22;10975;47.872;12.972;2022-10-16T06:43:52;12.30;99.90
21627;DHT22;10975;47.872;12.972;2022-10-16T06:46:20;12.40;99.90
21627;DHT22;10975;47.872;12.972;2022-10-16T06:48:47;12.50;99.90
21627;DHT22;10975;47.872;12.972;2022-10-16T06:51:15;12.60;99.90
21627;DHT22;10975;47.872;12.972;2022-10-16T06:53:46;12.70;99.90
21627;DHT22;10975;47.872;12.972;2022-10-16T06:56:28;12.80;99.90
21627;DHT22;10975;47.872;12.972;2022-10-16T06:58:57;12.90;99.90
21627;DHT22;10975;47.872;12.972;2022-10-16T07:01:24;13.00;99.90
21627;DHT22;10975;47.872;12.972;2022-10-16T07:03:51;13.10;99.90
21627;DHT22;10975;47.872;12.972;2022-10-16T07:06:20;13.20;99.90
21627;DHT22;10975;47.872;12.972;2022-10-16T07:08:47;13.30;99.90
21627;DHT22;10975;47.872;12.972;2022-10-16T07:11:18;13.40;99.90
21627;DHT22;10975;47.872;12.972;2022-10-16T07:13:45;13.50;99.90
21627;DHT22;10975;47.872;12.972;2022-10-16T07:16:21;13.50;99.90
21627;DHT22;10975;47.872;12.972;2022-10-16T07:18:48;13.60;99.90
21627;DHT22;10975;47.872;12.972;2022-10-16T07:21:16;13.70;99.90
21627;DHT22;10975;47.872;12.972;2022-10-16T07:23:43;13.70;99.90
21627;DHT22;10975;47.872;12.972;2022-10-16T07:26:10;13.80;99.90
21627;DHT22;10975;47.872;12.972;2022-10-16T07:28:37;13.80;99.90
21627;DHT22;10975;47.872;12.972;2022-10-16T07:31:06;13.80;99.90
21627;DHT22;10975;47.872;12.972;2022-10-16T07:33:34;13.80;99.90
21627;DHT22;10975;47.872;12.972;2022-10-16T07:36:01;13.90;99.90
21627;DHT22;10975;47.872;12.972;2022-10-16T07:38:28;14.00;99.90
21627;DHT22;10975;47.872;12.972;2022-10-16T07:40:55;14.10;99.90
21627;DHT22;10975;47.872;12.972;2022-10-16T07:43:22;14.30;99.90
21627;DHT22;10975;47.872;12.972;2022-10-16T07:45:49;14.40;99.90
21627;DHT22;10975;47.872;12.972;2022-10-16T07:48:17;14.60;99.90
21627;DHT22;10975;47.872;12.972;2022-10-16T07:50:45;14.70;99.90
21627;DHT22;10975;47.872;12.972;2022-10-16T07:53:11;14.80;99.90
21627;DHT22;10975;47.872;12.972;2022-10-16T07:55:38;14.90;99.90
21627;DHT22;10975;47.872;12.972;2022-10-16T07:58:05;15.00;99.90
21627;DHT22;10975;47.872;12.972;2022-10-16T08:00:32;15.10;99.90
21627;DHT22;10975;47.872;12.972;2022-10-16T08:02:59;15.20;99.90
21627;DHT22;10975;47.872;12.972;2022-10-16T08:05:27;15.30;99.90
21627;DHT22;10975;47.872;12.972;2022-10-16T08:07:54;15.40;99.90
21627;DHT22;10975;47.872;12.972;2022-10-16T08:10:21;15.50;99.90
21627;DHT22;10975;47.872;12.972;2022-10-16T08:12:48;15.50;99.90
21627;DHT22;10975;47.872;12.972;2022-10-16T08:15:14;15.60;99.90
21627;DHT22;10975;47.872;12.972;2022-10-16T08:17:41;15.60;99.90
21627;DHT22;10975;47.872;12.972;2022-10-16T08:20:08;15.60;99.90
21627;DHT22;10975;47.872;12.972;2022-10-16T08:22:35;15.70;99.90
21627;DHT22;10975;47.872;12.972;2022-10-16T08:25:02;15.70;99.90
21627;DHT22;10975;47.872;12.972;2022-10-16T08:27:32;15.80;99.90
21627;DHT22;10975;47.872;12.972;2022-10-16T08:29:59;15.80;99.90
21627;DHT22;10975;47.872;12.972;2022-10-16T08:32:26;15.90;99.90
21627;DHT22;10975;47.872;12.972;2022-10-16T08:34:53;15.90;99.90
21627;DHT22;10975;47.872;12.972;2022-10-16T08:37:19;16.00;99.90
21627;DHT22;10975;47.872;12.972;2022-10-16T08:39:46;16.00;99.90
21627;DHT22;10975;47.872;12.972;2022-10-16T08:42:19;16.00;99.90
21627;DHT22;10975;47.872;12.972;2022-10-16T08:44:57;16.10;99.90
21627;DHT22;10975;47.872;12.972;2022-10-16T08:48:05;16.20;99.90
21627;DHT22;10975;47.872;12.972;2022-10-16T08:50:23;16.20;99.90
21627;DHT22;10975;47.872;12.972;2022-10-16T08:52:50;16.30;99.90
21627;DHT22;10975;47.872;12.972;2022-10-16T08:55:31;16.40;99.90
21627;DHT22;10975;47.872;12.972;2022-10-16T08:57:59;16.40;99.90
21627;DHT22;10975;47.872;12.972;2022-10-16T09:00:26;16.50;99.90
21627;DHT22;10975;47.872;12.972;2022-10-16T09:02:57;16.50;99.90
21627;DHT22;10975;47.872;12.972;2022-10-16T09:10:49;16.70;99.90
21627;DHT22;10975;47.872;12.972;2022-10-16T09:13:21;16.80;99.90
21627;DHT22;10975;47.872;12.972;2022-10-16T09:15:53;16.80;99.90
21627;DHT22;10975;47.872;12.972;2022-10-16T09:18:26;16.90;99.90
21627;DHT22;10975;47.872;12.972;2022-10-16T09:23:26;17.00;99.90
21627;DHT22;10975;47.872;12.972;2022-10-16T09:25:53;17.10;99.90
21627;DHT22;10975;47.872;12.972;2022-10-16T09:28:21;17.10;99.90
21627;DHT22;10975;47.872;12.972;2022-10-16T09:30:48;17.20;99.90
21627;DHT22;10975;47.872;12.972;2022-10-16T09:33:17;17.20;99.90
21627;DHT22;10975;47.872;12.972;2022-10-16T09:35:46;17.20;99.90
21627;DHT22;10975;47.872;12.972;2022-10-16T09:38:30;17.30;99.90
21627;DHT22;10975;47.872;12.972;2022-10-16T09:40:57;17.30;99.90
21627;DHT22;10975;47.872;12.972;2022-10-16T09:43:34;17.30;99.90
21627;DHT22;10975;47.872;12.972;2022-10-16T09:46:05;17.30;99.90
21627;DHT22;10975;47.872;12.972;2022-10-16T09:48:37;17.40;99.90
21627;DHT22;10975;47.872;12.972;2022-10-16T09:51:04;17.40;99.90
21627;DHT22;10975;47.872;12.972;2022-10-16T09:53:41;17.50;99.90
21627;DHT22;10975;47.872;12.972;2022-10-16T09:56:09;17.50;99.90
21627;DHT22;10975;47.872;12.972;2022-10-16T09:58:43;17.60;99.90
21627;DHT22;10975;47.872;12.972;2022-10-16T10:01:12;17.60;99.90
21627;DHT22;10975;47.872;12.972;2022-10-16T10:03:39;17.60;99.90
21627;DHT22;10975;47.872;12.972;2022-10-16T10:06:17;17.60;99.90
21627;DHT22;10975;47.872;12.972;2022-10-16T10:11:37;17.70;99.90
21627;DHT22;10975;47.872;12.972;2022-10-16T10:14:05;17.70;99.90
21627;DHT22;10975;47.872;12.972;2022-10-16T10:16:31;17.70;99.90
21627;DHT22;10975;47.872;12.972;2022-10-16T10:18:59;17.80;99.90
21627;DHT22;10975;47.872;12.972;2022-10-16T10:21:26;17.90;99.90
21627;DHT22;10975;47.872;12.972;2022-10-16T10:23:55;17.90;99.90
21627;DHT22;10975;47.872;12.972;2022-10-16T10:26:24;17.90;99.90
21627;DHT22;10975;47.872;12.972;2022-10-16T10:31:21;18.00;99.90
21627;DHT22;10975;47.872;12.972;2022-10-16T10:36:30;18.10;99.90
21627;DHT22;10975;47.872;12.972;2022-10-16T10:38:59;18.10;99.90
21627;DHT22;10975;47.872;12.972;2022-10-16T10:46:56;18.20;99.90
21627;DHT22;10975;47.872;12.972;2022-10-16T11:02:25;18.50;99.90
21627;DHT22;10975;47.872;12.972;2022-10-16T11:05:17;18.50;99.90
21627;DHT22;10975;47.872;12.972;2022-10-16T11:07:52;18.50;99.90
21627;DHT22;10975;47.872;12.972;2022-10-16T11:10:22;18.60;99.90
21627;DHT22;10975;47.872;12.972;2022-10-16T11:12:54;18.60;99.90
21627;DHT22;10975;47.872;12.972;2022-10-16T11:15:29;18.60;99.90
21627;DHT22;10975;47.872;12.972;2022-10-16T11:17:59;18.70;99.90
21627;DHT22;10975;47.872;12.972;2022-10-16T11:20:29;18.80;99.90
21627;DHT22;10975;47.872;12.972;2022-10-16T11:23:00;18.80;99.90
21627;DHT22;10975;47.872;12.972;2022-10-16T11:25:29;18.90;99.90
21627;DHT22;10975;47.872;12.972;2022-10-16T11:27:58;18.90;99.90
21627;DHT22;10975;47.872;12.972;2022-10-16T11:30:32;18.90;99.90
21627;DHT22;10975;47.872;12.972;2022-10-16T11:35:57;18.80;99.90
21627;DHT22;10975;47.872;12.972;2022-10-16T11:40:56;19.00;99.90
21627;DHT22;10975;47.872;12.972;2022-10-16T11:43:26;19.10;99.90
21627;DHT22;10975;47.872;12.972;2022-10-16T11:45:55;19.10;99.90
21627;DHT22;10975;47.872;12.972;2022-10-16T11:48:41;19.20;99.90
21627;DHT22;10975;47.872;12.972;2022-10-16T11:56:13;19.40;99.90
21627;DHT22;10975;47.872;12.972;2022-10-16T12:01:17;19.40;99.90
21627;DHT22;10975;47.872;12.972;2022-10-16T12:03:47;19.40;99.90
21627;DHT22;10975;47.872;12.972;2022-10-16T12:08:51;19.50;99.90
21627;DHT22;10975;47.872;12.972;2022-10-16T12:13:51;19.50;99.90
21627;DHT22;10975;47.872;12.972;2022-10-16T12:16:21;19.60;99.90
21627;DHT22;10975;47.872;12.972;2022-10-16T12:18:49;19.60;99.90
21627;DHT22;10975;47.872;12.972;2022-10-16T12:21:16;19.70;99.90
21627;DHT22;10975;47.872;12.972;2022-10-16T12:23:52;19.70;99.90
21627;DHT22;10975;47.872;12.972;2022-10-16T12:26:28;19.70;99.90
21627;DHT22;10975;47.872;12.972;2022-10-16T12:28:55;19.70;99.90
21627;DHT22;10975;47.872;12.972;2022-10-16T12:31:24;19.80;99.90
21627;DHT22;10975;47.872;12.972;2022-10-16T12:34:05;19.90;99.90
21627;DHT22;10975;47.872;12.972;2022-10-16T12:36:32;19.90;99.90
21627;DHT22;10975;47.872;12.972;2022-10-16T12:39:01;19.90;99.90
21627;DHT22;10975;47.872;12.972;2022-10-16T12:41:34;19.90;99.90
21627;DHT22;10975;47.872;12.972;2022-10-16T12:44:02;19.90;99.90
21627;DHT22;10975;47.872;12.972;2022-10-16T12:51:42;20.00;99.90
21627;DHT22;10975;47.872;12.972;2022-10-16T12:54:16;20.00;99.90
21627;DHT22;10975;47.872;12.972;2022-10-16T13:00:12;20.10;99.90
21627;DHT22;10975;47.872;12.972;2022-10-16T13:10:26;20.60;99.90
21627;DHT22;10975;47.872;12.972;2022-10-16T13:15:28;20.60;99.90
21627;DHT22;10975;47.872;12.972;2022-10-16T13:18:13;20.60;99.90
21627;DHT22;10975;47.872;12.972;2022-10-16T13:23:15;20.70;99.90
21627;DHT22;10975;47.872;12.972;2022-10-16T13:28:10;20.80;99.90
21627;DHT22;10975;47.872;12.972;2022-10-16T13:30:42;20.80;99.90
21627;DHT22;10975;47.872;12.972;2022-10-16T13:35:36;21.00;99.90
21627;DHT22;10975;47.872;12.972;2022-10-16T13:38:03;21.00;99.90
21627;DHT22;10975;47.872;12.972;2022-10-16T13:40:30;21.00;99.90
21627;DHT22;10975;47.872;12.972;2022-10-16T13:42:59;21.00;99.90
21627;DHT22;10975;47.872;12.972;2022-10-16T13:45:26;21.00;99.90
21627;DHT22;10975;47.872;12.972;2022-10-16T13:48:02;21.00;99.90
21627;DHT22;10975;47.872;12.972;2022-10-16T13:50:29;21.00;99.90
21627;DHT22;10975;47.872;12.972;2022-10-16T13:53:30;21.10;99.90
21627;DHT22;10975;47.872;12.972;2022-10-16T13:55:50;21.00;99.90
21627;DHT22;10975;47.872;12.972;2022-10-16T13:58:17;21.00;99.90
21627;DHT22;10975;47.872;12.972;2022-10-16T14:01:00;21.00;99.90
21627;DHT22;10975;47.872;12.972;2022-10-16T14:03:27;21.00;99.90
21627;DHT22;10975;47.872;12.972;2022-10-16T14:05:55;20.90;99.90
21627;DHT22;10975;47.872;12.972;2022-10-16T14:08:23;20.90;99.90
21627;DHT22;10975;47.872;12.972;2022-10-16T14:10:51;21.00;99.90
21627;DHT22;10975;47.872;12.972;2022-10-16T14:13:20;21.00;99.90
21627;DHT22;10975;47.872;12.972;2022-10-16T14:15:49;21.00;99.90
21627;DHT22;10975;47.872;12.972;2022-10-16T14:18:18;20.90;99.90
21627;DHT22;10975;47.872;12.972;2022-10-16T14:20:45;20.80;99.90
21627;DHT22;10975;47.872;12.972;2022-10-16T14:25:45;20.70;99.90
21627;DHT22;10975;47.872;12.972;2022-10-16T14:33:34;20.60;99.90
21627;DHT22;10975;47.872;12.972;2022-10-16T14:36:05;20.50;99.90
21627;DHT22;10975;47.872;12.972;2022-10-16T14:38:32;20.50;99.90
21627;DHT22;10975;47.872;12.972;2022-10-16T14:40:59;20.40;99.90
21627;DHT22;10975;47.872;12.972;2022-10-16T14:45:56;20.30;99.90
21627;DHT22;10975;47.872;12.972;2022-10-16T14:48:23;20.30;99.90
21627;DHT22;10975;47.872;12.972;2022-10-16T14:50:50;20.20;99.90
21627;DHT22;10975;47.872;12.972;2022-10-16T14:53:17;20.20;99.90
21627;DHT22;10975;47.872;12.972;2022-10-16T14:55:44;20.20;99.90
21627;DHT22;10975;47.872;12.972;2022-10-16T14:58:15;20.30;99.90
21627;DHT22;10975;47.872;12.972;2022-10-16T15:00:42;20.20;99.90
21627;DHT22;10975;47.872;12.972;2022-10-16T15:03:09;20.10;99.90
21627;DHT22;10975;47.872;12.972;2022-10-16T15:05:36;20.10;99.90
21627;DHT22;10975;47.872;12.972;2022-10-16T15:08:03;20.10;99.90
21627;DHT22;10975;47.872;12.972;2022-10-16T15:10:31;20.00;99.90
21627;DHT22;10975;47.872;12.972;2022-10-16T15:12:59;19.90;99.90
21627;DHT22;10975;47.872;12.972;2022-10-16T15:15:33;19.90;99.90
21627;DHT22;10975;47.872;12.972;2022-10-16T15:18:00;19.90;99.90
21627;DHT22;10975;47.872;12.972;2022-10-16T15:20:28;19.90;99.90
21627;DHT22;10975;47.872;12.972;2022-10-16T15:22:56;20.00;99.90
21627;DHT22;10975;47.872;12.972;2022-10-16T15:25:37;20.00;99.90
21627;DHT22;10975;47.872;12.972;2022-10-16T15:28:06;20.00;99.90
21627;DHT22;10975;47.872;12.972;2022-10-16T15:30:33;19.90;99.90
21627;DHT22;10975;47.872;12.972;2022-10-16T15:33:01;19.80;99.90
21627;DHT22;10975;47.872;12.972;2022-10-16T15:35:27;19.80;99.90
21627;DHT22;10975;47.872;12.972;2022-10-16T15:37:56;19.70;99.90
21627;DHT22;10975;47.872;12.972;2022-10-16T15:40:23;19.60;99.90
21627;DHT22;10975;47.872;12.972;2022-10-16T15:42:49;19.50;99.90
21627;DHT22;10975;47.872;12.972;2022-10-16T15:45:16;19.50;99.90
21627;DHT22;10975;47.872;12.972;2022-10-16T15:47:45;19.40;99.90
21627;DHT22;10975;47.872;12.972;2022-10-16T15:50:12;19.30;99.90
21627;DHT22;10975;47.872;12.972;2022-10-16T15:52:39;19.20;99.90
21627;DHT22;10975;47.872;12.972;2022-10-16T15:55:07;19.00;99.90
21627;DHT22;10975;47.872;12.972;2022-10-16T15:57:35;18.90;99.90
21627;DHT22;10975;47.872;12.972;2022-10-16T16:00:05;18.80;99.90
21627;DHT22;10975;47.872;12.972;2022-10-16T16:02:36;18.70;99.90
21627;DHT22;10975;47.872;12.972;2022-10-16T16:05:03;18.60;99.90
21627;DHT22;10975;47.872;12.972;2022-10-16T16:07:34;18.60;99.90
21627;DHT22;10975;47.872;12.972;2022-10-16T16:10:01;18.50;99.90
21627;DHT22;10975;47.872;12.972;2022-10-16T16:12:27;18.40;99.90
21627;DHT22;10975;47.872;12.972;2022-10-16T16:14:55;18.30;99.90
21627;DHT22;10975;47.872;12.972;2022-10-16T16:17:22;18.20;99.90
21627;DHT22;10975;47.872;12.972;2022-10-16T16:19:48;18.10;99.90
21627;DHT22;10975;47.872;12.972;2022-10-16T16:22:15;18.10;99.90
21627;DHT22;10975;47.872;12.972;2022-10-16T16:24:42;18.00;99.90
21627;DHT22;10975;47.872;12.972;2022-10-16T16:27:09;17.90;99.90
21627;DHT22;10975;47.872;12.972;2022-10-16T16:29:36;17.80;99.90
21627;DHT22;10975;47.872;12.972;2022-10-16T16:32:02;17.80;99.90
21627;DHT22;10975;47.872;12.972;2022-10-16T16:34:29;17.80;99.90
21627;DHT22;10975;47.872;12.972;2022-10-16T16:36:56;17.60;99.90
21627;DHT22;10975;47.872;12.972;2022-10-16T16:39:23;17.60;99.90
21627;DHT22;10975;47.872;12.972;2022-10-16T16:41:50;17.50;99.90
21627;DHT22;10975;47.872;12.972;2022-10-16T16:44:16;17.40;99.90
21627;DHT22;10975;47.872;12.972;2022-10-16T16:46:43;17.30;99.90
21627;DHT22;10975;47.872;12.972;2022-10-16T16:49:11;17.20;99.90
21627;DHT22;10975;47.872;12.972;2022-10-16T16:51:38;17.20;99.90
21627;DHT22;10975;47.872;12.972;2022-10-16T16:54:06;17.10;99.90
21627;DHT22;10975;47.872;12.972;2022-10-16T16:56:35;17.10;99.90
21627;DHT22;10975;47.872;12.972;2022-10-16T16:59:02;17.00;99.90
21627;DHT22;10975;47.872;12.972;2022-10-16T17:01:30;16.90;99.90
21627;DHT22;10975;47.872;12.972;2022-10-16T17:03:58;16.90;99.90